Time;durP1;ratioP1;P1;durP2;ratioP2;P2;SDS_P1;SDS_P2;PMS_P1;PMS_P2;Temp;Humidity;BMP_temperature;BMP_pressure;BME280_temperature;BME280_humidity;BME280_pressure;Samples;Min_cycle;Max_cycle;Signal;HPM_P1;HPM_P2
2021/01/16 00:00:21;;;;;;;28.73;20.90;;;3.90;99.90;;;;;;5014337;28;20268;-82
2021/01/16 00:02:47;;;;;;;26.83;19.40;;;3.90;99.90;;;;;;5014622;28;20619;-87
2021/01/16 00:05:16;;;;;;;26.70;20.47;;;3.80;99.90;;;;;;5014356;28;20174;-88
2021/01/16 00:07:43;;;;;;;29.50;21.80;;;3.70;99.90;;;;;;5014490;28;20232;-87
2021/01/16 00:10:11;;;;;;;26.10;20.00;;;3.60;99.90;;;;;;5014352;28;20688;-84
2021/01/16 00:12:36;;;;;;;27.00;21.80;;;3.70;99.90;;;;;;5014139;28;20185;-84
2021/01/16 00:15:04;;;;;;;27.07;20.70;;;3.90;99.90;;;;;;5014110;28;20167;-85
2021/01/16 00:17:29;;;;;;;28.93;21.43;;;4.20;99.90;;;;;;5014229;28;20631;-85
2021/01/16 00:19:55;;;;;;;26.97;20.07;;;4.00;99.90;;;;;;5015130;28;20258;-86
2021/01/16 00:22:21;;;;;;;25.47;19.77;;;3.90;99.90;;;;;;5015185;28;20341;-86
2021/01/16 00:24:46;;;;;;;25.97;20.00;;;3.60;99.90;;;;;;5014193;28;20257;-87
2021/01/16 00:27:12;;;;;;;25.97;20.03;;;3.40;99.90;;;;;;5007602;28;20210;-88
2021/01/16 00:29:38;;;;;;;25.70;19.57;;;3.50;99.90;;;;;;5001554;28;20185;-87
2021/01/16 00:32:03;;;;;;;24.77;19.93;;;3.40;99.90;;;;;;4995682;28;20655;-89
2021/01/16 00:34:29;;;;;;;28.13;20.40;;;3.40;99.90;;;;;;4994274;28;20207;-87
2021/01/16 00:36:55;;;;;;;29.83;21.83;;;3.50;99.90;;;;;;5009484;28;20631;-87
2021/01/16 00:39:21;;;;;;;27.17;20.57;;;3.60;99.90;;;;;;5015137;28;20205;-83
2021/01/16 00:41:47;;;;;;;28.27;20.67;;;3.50;99.90;;;;;;5014808;28;20202;-87
2021/01/16 00:44:12;;;;;;;27.67;20.10;;;3.50;99.90;;;;;;5013778;28;20162;-85
2021/01/16 00:46:38;;;;;;;27.27;20.30;;;3.50;99.90;;;;;;5013505;28;20170;-84
2021/01/16 00:49:04;;;;;;;26.13;20.23;;;3.50;99.90;;;;;;5013602;28;20229;-86
2021/01/16 00:51:30;;;;;;;26.33;19.97;;;3.60;99.90;;;;;;5014473;28;20217;-88
2021/01/16 00:53:55;;;;;;;23.20;18.53;;;3.60;99.90;;;;;;5013797;28;20638;-86
2021/01/16 00:56:21;;;;;;;25.13;19.67;;;3.50;99.90;;;;;;5014499;28;20194;-82
2021/01/16 00:58:46;;;;;;;26.40;19.70;;;3.30;99.90;;;;;;5014643;28;20502;-87
2021/01/16 01:01:12;;;;;;;29.63;20.00;;;3.20;99.90;;;;;;5014195;28;20174;-82
2021/01/16 01:03:38;;;;;;;24.33;19.37;;;3.30;99.90;;;;;;5013657;28;20294;-85
2021/01/16 01:06:03;;;;;;;25.73;20.37;;;3.40;99.90;;;;;;5014569;28;20189;-85
2021/01/16 01:08:32;;;;;;;27.50;20.43;;;3.60;99.90;;;;;;5013288;28;20254;-84
2021/01/16 01:10:58;;;;;;;24.97;19.83;;;3.80;99.90;;;;;;5014129;28;20221;-87
2021/01/16 01:13:24;;;;;;;25.63;20.00;;;3.90;99.90;;;;;;5013214;28;20178;-83
2021/01/16 01:15:50;;;;;;;25.00;19.60;;;3.90;99.90;;;;;;5014271;28;20178;-86
2021/01/16 01:18:15;;;;;;;25.57;18.50;;;3.50;99.90;;;;;;5014330;28;20174;-84
2021/01/16 01:20:41;;;;;;;25.10;19.03;;;3.40;99.90;;;;;;5012960;28;20650;-87
2021/01/16 01:23:07;;;;;;;24.53;19.23;;;3.30;99.90;;;;;;5013083;28;20190;-86
2021/01/16 01:25:32;;;;;;;26.57;19.90;;;3.30;99.90;;;;;;5013737;28;20581;-84
2021/01/16 01:28:00;;;;;;;25.07;18.97;;;3.30;99.90;;;;;;5013264;28;20173;-83
2021/01/16 01:30:28;;;;;;;27.27;19.23;;;3.50;99.90;;;;;;5012830;28;20213;-86
2021/01/16 01:32:57;;;;;;;27.33;20.20;;;3.70;99.90;;;;;;5013521;28;20166;-86
2021/01/16 01:35:24;;;;;;;28.20;19.17;;;3.70;99.90;;;;;;5018077;28;20265;-86
2021/01/16 01:37:52;;;;;;;26.10;20.30;;;3.50;99.90;;;;;;5016269;28;20175;-86
2021/01/16 01:40:19;;;;;;;25.07;19.13;;;3.40;99.90;;;;;;5016027;28;20174;-83
2021/01/16 01:42:50;;;;;;;26.73;19.27;;;3.30;99.90;;;;;;5012637;28;20175;-86
2021/01/16 01:45:17;;;;;;;27.73;20.00;;;3.30;99.90;;;;;;5013181;28;20635;-83
2021/01/16 01:47:44;;;;;;;26.47;20.83;;;3.40;99.90;;;;;;5020419;28;20250;-82
2021/01/16 01:50:12;;;;;;;26.07;19.70;;;3.60;99.90;;;;;;5032097;28;20218;-81
2021/01/16 01:52:40;;;;;;;26.97;20.63;;;3.70;99.90;;;;;;5011676;28;20237;-82
2021/01/16 01:55:23;;;;;;;25.43;19.57;;;3.60;99.90;;;;;;4994521;28;20197;-83
2021/01/16 01:57:56;;;;;;;31.27;19.90;;;3.50;99.90;;;;;;4993645;28;20273;-86
2021/01/16 02:00:23;;;;;;;23.57;19.03;;;3.30;99.90;;;;;;4993322;28;20210;-86
2021/01/16 02:02:50;;;;;;;27.10;20.73;;;3.40;99.90;;;;;;4993154;28;20174;-86
2021/01/16 02:05:16;;;;;;;27.10;19.20;;;3.30;99.90;;;;;;4993055;28;20179;-86
2021/01/16 02:07:42;;;;;;;26.77;19.73;;;3.20;99.90;;;;;;4992901;28;20183;-86
2021/01/16 02:10:23;;;;;;;26.47;20.13;;;3.20;99.90;;;;;;4992864;28;20211;-85
2021/01/16 02:12:57;;;;;;;24.80;18.73;;;3.00;99.90;;;;;;4995678;28;20170;-85
2021/01/16 02:15:29;;;;;;;25.07;19.70;;;2.90;99.90;;;;;;4998226;28;20619;-82
2021/01/16 02:18:02;;;;;;;25.67;19.67;;;2.90;99.90;;;;;;4996844;28;20185;-86
2021/01/16 02:20:33;;;;;;;28.37;21.03;;;2.90;99.90;;;;;;4996860;28;20221;-87
2021/01/16 02:23:15;;;;;;;28.80;21.40;;;2.80;99.90;;;;;;5013420;28;20680;-86
2021/01/16 02:25:41;;;;;;;28.10;20.10;;;3.10;99.90;;;;;;5016765;28;20205;-87
2021/01/16 02:28:12;;;;;;;31.90;21.70;;;3.40;99.90;;;;;;5017707;28;20204;-86
2021/01/16 02:30:40;;;;;;;26.47;21.00;;;3.30;99.90;;;;;;5016345;28;20210;-87
2021/01/16 02:33:12;;;;;;;28.53;21.53;;;3.30;99.90;;;;;;5016267;28;20638;-87
2021/01/16 02:36:08;;;;;;;26.43;20.47;;;3.20;99.90;;;;;;5007245;28;20179;-85
2021/01/16 02:38:49;;;;;;;34.80;21.43;;;3.10;99.90;;;;;;4997385;28;20751;-86
2021/01/16 02:41:48;;;;;;;28.93;21.50;;;3.10;99.90;;;;;;4996609;28;20240;-86
2021/01/16 02:44:29;;;;;;;28.10;19.93;;;3.10;99.90;;;;;;4996660;28;20171;-85
2021/01/16 02:47:03;;;;;;;30.37;21.20;;;3.10;99.90;;;;;;4997911;28;20230;-86
2021/01/16 02:49:28;;;;;;;28.30;21.40;;;3.20;99.90;;;;;;4997130;28;20191;-86
2021/01/16 02:52:16;;;;;;;29.93;21.77;;;3.40;99.90;;;;;;5000933;28;20186;-88
2021/01/16 02:54:44;;;;;;;28.07;20.53;;;3.40;99.90;;;;;;5016027;28;20178;-88
2021/01/16 02:57:10;;;;;;;26.20;19.50;;;3.40;99.90;;;;;;5016490;28;20225;-87
2021/01/16 02:59:38;;;;;;;28.47;21.33;;;3.30;99.90;;;;;;5016085;28;20630;-87
2021/01/16 03:02:06;;;;;;;27.20;19.83;;;3.20;99.90;;;;;;5017594;28;20167;-82
2021/01/16 03:04:33;;;;;;;29.17;21.80;;;3.00;99.90;;;;;;5016323;28;20177;-82
2021/01/16 03:06:59;;;;;;;29.80;21.40;;;2.80;99.90;;;;;;5016149;28;20182;-85
2021/01/16 03:09:28;;;;;;;28.60;21.90;;;3.10;99.90;;;;;;5015709;28;20178;-87
2021/01/16 03:11:54;;;;;;;27.70;21.33;;;3.20;99.90;;;;;;5015786;28;20619;-87
2021/01/16 03:14:22;;;;;;;27.87;20.53;;;3.40;99.90;;;;;;5016911;28;20257;-86
2021/01/16 03:17:05;;;;;;;27.77;20.33;;;3.50;99.90;;;;;;5015536;28;20174;-87
2021/01/16 03:19:33;;;;;;;27.90;20.10;;;3.40;99.90;;;;;;5015119;28;20177;-84
2021/01/16 03:21:58;;;;;;;25.53;18.93;;;3.20;99.90;;;;;;5014873;28;20190;-83
2021/01/16 03:24:25;;;;;;;28.30;20.60;;;3.20;99.90;;;;;;5015169;28;20241;-85
2021/01/16 03:26:50;;;;;;;27.30;20.17;;;3.10;99.90;;;;;;5016730;28;20167;-83
2021/01/16 03:29:16;;;;;;;25.93;20.30;;;2.90;99.90;;;;;;5015254;28;20205;-86
2021/01/16 03:31:42;;;;;;;26.40;19.43;;;2.90;99.90;;;;;;5021174;28;20218;-85
2021/01/16 03:34:07;;;;;;;27.63;20.97;;;2.90;99.90;;;;;;5015830;28;20171;-86
2021/01/16 03:36:33;;;;;;;25.67;19.47;;;3.00;99.90;;;;;;5014612;28;20316;-85
2021/01/16 03:38:59;;;;;;;26.73;20.77;;;3.10;99.90;;;;;;5015031;28;20210;-86
2021/01/16 03:41:24;;;;;;;30.00;21.53;;;3.30;99.90;;;;;;5016261;28;20178;-83
2021/01/16 03:43:50;;;;;;;28.90;21.67;;;3.50;99.90;;;;;;5014833;28;20189;-84
2021/01/16 03:46:16;;;;;;;28.90;22.13;;;3.60;99.90;;;;;;5015152;28;20175;-85
2021/01/16 03:48:41;;;;;;;27.20;20.73;;;3.60;99.90;;;;;;5014606;28;20317;-86
2021/01/16 03:51:07;;;;;;;28.70;21.13;;;3.50;99.90;;;;;;5015652;28;20695;-84
2021/01/16 03:53:33;;;;;;;26.23;20.40;;;3.50;99.90;;;;;;5014339;28;20213;-81
2021/01/16 03:55:59;;;;;;;28.07;21.60;;;3.60;99.90;;;;;;5015054;28;20210;-85
2021/01/16 03:58:24;;;;;;;27.40;20.13;;;3.70;99.90;;;;;;5016125;28;20166;-86
2021/01/16 04:00:50;;;;;;;27.90;20.87;;;3.80;99.90;;;;;;5014498;28;20240;-84
2021/01/16 04:03:15;;;;;;;27.40;20.03;;;3.70;99.90;;;;;;5014671;28;20174;-85
2021/01/16 04:05:41;;;;;;;24.77;18.90;;;3.70;99.90;;;;;;5013916;28;20178;-86
2021/01/16 04:08:07;;;;;;;27.77;20.10;;;3.70;99.90;;;;;;5014764;28;20171;-84
2021/01/16 04:10:33;;;;;;;25.27;19.67;;;3.70;99.90;;;;;;5014220;28;20210;-87
2021/01/16 04:12:58;;;;;;;25.53;19.20;;;3.50;99.90;;;;;;5014500;28;20174;-84
2021/01/16 04:15:24;;;;;;;26.53;19.90;;;3.60;99.90;;;;;;5014154;28;20225;-81
2021/01/16 04:17:50;;;;;;;25.93;20.53;;;3.30;99.90;;;;;;5015479;28;20256;-86
2021/01/16 04:20:15;;;;;;;27.17;19.77;;;3.30;99.90;;;;;;5013636;28;20186;-87
2021/01/16 04:22:41;;;;;;;26.03;20.00;;;3.20;99.90;;;;;;5014281;28;20210;-87
2021/01/16 04:25:07;;;;;;;26.40;19.13;;;3.20;99.90;;;;;;5014142;28;20186;-85
2021/01/16 04:27:33;;;;;;;24.17;19.43;;;3.20;99.90;;;;;;5015386;28;20245;-84
2021/01/16 04:30:03;;;;;;;25.53;19.23;;;3.20;99.90;;;;;;5014075;28;20206;-82
2021/01/16 04:32:29;;;;;;;26.43;19.60;;;3.00;99.90;;;;;;5015111;28;20205;-85
2021/01/16 04:34:55;;;;;;;25.57;19.63;;;3.00;99.90;;;;;;5014211;28;20228;-86
2021/01/16 04:37:20;;;;;;;26.57;19.27;;;3.00;99.90;;;;;;5014236;28;20174;-87
2021/01/16 04:39:46;;;;;;;27.53;20.00;;;3.00;99.90;;;;;;5014032;28;20185;-86
2021/01/16 04:42:14;;;;;;;25.03;19.17;;;3.00;99.90;;;;;;5013951;28;20182;-86
2021/01/16 04:44:43;;;;;;;25.73;19.80;;;3.00;99.90;;;;;;5013975;28;20182;-86
2021/01/16 04:47:16;;;;;;;27.60;19.23;;;3.00;99.90;;;;;;5013997;28;20171;-85
2021/01/16 04:49:42;;;;;;;25.80;19.50;;;3.00;99.90;;;;;;5013338;28;20202;-87
2021/01/16 04:52:10;;;;;;;25.80;19.73;;;2.90;99.90;;;;;;5014984;28;20701;-86
2021/01/16 04:54:41;;;;;;;25.33;18.77;;;2.90;99.90;;;;;;5013705;28;20178;-87
2021/01/16 04:57:12;;;;;;;25.23;18.80;;;2.80;99.90;;;;;;5014954;28;20222;-85
2021/01/16 04:59:37;;;;;;;25.23;18.60;;;2.70;99.90;;;;;;5013837;28;20197;-86
2021/01/16 05:02:10;;;;;;;22.80;17.83;;;2.70;99.90;;;;;;5014643;28;20623;-87
2021/01/16 05:04:39;;;;;;;27.13;19.03;;;2.70;99.90;;;;;;5013546;28;20680;-87
2021/01/16 05:07:09;;;;;;;28.33;19.67;;;2.70;99.90;;;;;;5014751;28;20178;-88
2021/01/16 05:09:36;;;;;;;28.13;19.83;;;2.80;99.90;;;;;;5013609;28;20175;-88
2021/01/16 05:12:31;;;;;;;26.00;17.97;;;2.80;99.90;;;;;;5013483;28;20182;-87
2021/01/16 05:15:02;;;;;;;25.77;19.00;;;2.70;99.90;;;;;;5012235;28;20273;-87
2021/01/16 05:17:32;;;;;;;24.60;17.73;;;2.80;99.90;;;;;;5013045;28;20174;-87
2021/01/16 05:20:00;;;;;;;25.23;19.77;;;2.90;99.90;;;;;;5013421;28;20324;-88
2021/01/16 05:22:27;;;;;;;24.47;18.40;;;2.90;99.90;;;;;;5001571;28;20195;-87
2021/01/16 05:24:59;;;;;;;25.27;18.77;;;2.90;99.90;;;;;;4995074;28;20164;-86
2021/01/16 05:27:34;;;;;;;27.40;20.10;;;2.90;99.90;;;;;;4993736;28;20175;-84
2021/01/16 05:30:09;;;;;;;26.87;18.10;;;2.80;99.90;;;;;;4994632;28;20236;-85
2021/01/16 05:32:36;;;;;;;25.20;18.90;;;2.80;99.90;;;;;;4993218;28;20657;-84
2021/01/16 05:35:22;;;;;;;25.60;18.87;;;2.80;99.90;;;;;;4994717;28;20253;-89
2021/01/16 05:37:49;;;;;;;23.77;18.30;;;2.80;99.90;;;;;;4993173;28;20184;-88
2021/01/16 05:40:16;;;;;;;25.33;18.30;;;2.80;99.90;;;;;;4994949;28;20221;-87
2021/01/16 05:42:42;;;;;;;26.30;18.60;;;2.80;99.90;;;;;;4995796;28;20615;-88
2021/01/16 05:45:10;;;;;;;27.90;19.40;;;2.90;99.90;;;;;;4996923;28;20175;-85
2021/01/16 05:47:39;;;;;;;23.20;18.83;;;3.00;99.90;;;;;;4996491;28;20175;-86
2021/01/16 05:50:06;;;;;;;27.10;19.57;;;3.10;99.90;;;;;;4993243;28;20573;-84
2021/01/16 05:52:32;;;;;;;25.53;18.93;;;3.20;99.90;;;;;;5002939;28;20189;-82
2021/01/16 05:54:59;;;;;;;23.87;17.63;;;3.00;99.90;;;;;;5012839;28;20639;-83
2021/01/16 05:57:26;;;;;;;26.43;19.20;;;3.00;99.90;;;;;;5013926;28;20171;-87
2021/01/16 06:00:01;;;;;;;24.37;17.63;;;3.10;99.90;;;;;;5012850;28;20197;-89
2021/01/16 06:02:33;;;;;;;26.43;18.60;;;3.00;99.90;;;;;;5005632;28;20678;-87
2021/01/16 06:04:59;;;;;;;26.67;19.10;;;2.80;99.90;;;;;;4993104;28;20190;-83
2021/01/16 06:07:25;;;;;;;28.03;19.27;;;2.70;99.90;;;;;;4992944;28;20555;-87
2021/01/16 06:09:53;;;;;;;26.63;18.17;;;2.60;99.90;;;;;;4993117;28;20186;-86
2021/01/16 06:12:20;;;;;;;25.83;18.80;;;2.70;99.90;;;;;;4992859;28;20167;-86
2021/01/16 06:14:47;;;;;;;26.07;18.37;;;2.60;99.90;;;;;;4993002;28;20171;-82
2021/01/16 06:17:15;;;;;;;27.77;18.77;;;2.70;99.90;;;;;;4992571;28;20269;-87
2021/01/16 06:19:48;;;;;;;28.37;20.03;;;2.70;99.90;;;;;;4992528;28;20616;-88
2021/01/16 06:22:16;;;;;;;27.57;19.03;;;2.60;99.90;;;;;;4997705;28;20205;-88
2021/01/16 06:24:46;;;;;;;26.00;18.90;;;2.70;99.90;;;;;;5012572;28;20182;-87
2021/01/16 06:27:23;;;;;;;26.77;17.70;;;2.70;99.90;;;;;;5013583;28;20178;-87
2021/01/16 06:29:58;;;;;;;25.37;17.87;;;2.70;99.90;;;;;;5011915;28;20170;-85
2021/01/16 06:32:25;;;;;;;27.07;19.27;;;2.70;99.90;;;;;;5013874;28;20254;-82
2021/01/16 06:35:09;;;;;;;27.37;17.90;;;2.80;99.90;;;;;;5012512;28;20639;-86
2021/01/16 06:37:45;;;;;;;28.67;17.93;;;2.80;99.90;;;;;;4992905;28;20278;-87
2021/01/16 06:40:13;;;;;;;26.77;18.10;;;2.70;99.90;;;;;;4994017;28;20167;-87
2021/01/16 06:42:40;;;;;;;22.80;16.90;;;2.70;99.90;;;;;;4992634;28;20229;-87
2021/01/16 06:45:10;;;;;;;25.40;18.13;;;2.70;99.90;;;;;;4992747;28;20213;-86
2021/01/16 06:47:38;;;;;;;24.07;15.80;;;2.70;99.90;;;;;;4992759;28;20178;-86
2021/01/16 06:50:07;;;;;;;24.97;18.07;;;2.60;99.90;;;;;;4992617;28;20711;-86
2021/01/16 06:52:36;;;;;;;23.93;16.30;;;2.60;99.90;;;;;;4998860;28;20543;-85
2021/01/16 06:55:03;;;;;;;19.80;15.57;;;2.60;99.90;;;;;;5012980;28;20170;-84
2021/01/16 06:57:31;;;;;;;20.53;14.90;;;2.50;99.90;;;;;;5012632;28;20186;-88
2021/01/16 06:59:59;;;;;;;21.17;14.33;;;2.50;99.90;;;;;;5015723;28;20265;-86
2021/01/16 07:02:32;;;;;;;20.37;14.37;;;2.50;99.90;;;;;;5009092;28;20254;-87
2021/01/16 07:05:03;;;;;;;17.80;13.67;;;2.60;99.90;;;;;;4996754;28;20182;-87
2021/01/16 07:07:30;;;;;;;16.73;12.00;;;2.60;99.90;;;;;;4996366;28;20175;-87
2021/01/16 07:09:58;;;;;;;17.50;12.20;;;2.60;99.90;;;;;;4996580;28;20205;-86
2021/01/16 07:12:24;;;;;;;16.53;12.13;;;2.60;99.90;;;;;;4996375;28;20274;-86
2021/01/16 07:14:50;;;;;;;21.57;12.37;;;2.60;99.90;;;;;;4995975;28;20689;-87
2021/01/16 07:17:19;;;;;;;17.97;13.03;;;2.60;99.90;;;;;;4997959;28;20175;-87
2021/01/16 07:19:44;;;;;;;15.67;11.50;;;2.60;99.90;;;;;;5004666;28;20187;-88
2021/01/16 07:22:10;;;;;;;20.13;12.50;;;2.50;99.90;;;;;;4998467;28;20222;-85
2021/01/16 07:24:37;;;;;;;15.87;10.70;;;2.60;99.90;;;;;;5015911;28;20229;-87
2021/01/16 07:27:05;;;;;;;15.60;10.90;;;2.60;99.90;;;;;;5015686;28;20184;-87
2021/01/16 07:29:36;;;;;;;15.50;10.37;;;2.60;99.90;;;;;;5016903;28;20182;-86
2021/01/16 07:32:15;;;;;;;13.67;10.60;;;2.60;99.90;;;;;;5020991;28;20189;-84
2021/01/16 07:34:50;;;;;;;17.67;11.00;;;2.70;99.90;;;;;;5036588;28;20182;-84
2021/01/16 07:37:19;;;;;;;14.23;9.43;;;2.80;99.90;;;;;;5008018;28;20647;-86
2021/01/16 07:39:46;;;;;;;13.20;10.03;;;2.80;99.90;;;;;;4999849;28;20168;-88
2021/01/16 07:42:15;;;;;;;16.50;10.67;;;2.80;99.90;;;;;;4997386;28;20179;-86
2021/01/16 07:44:45;;;;;;;14.07;10.07;;;2.80;99.90;;;;;;4997445;28;20174;-84
2021/01/16 07:47:37;;;;;;;16.60;10.07;;;2.80;99.90;;;;;;4995650;28;20585;-84
2021/01/16 07:50:09;;;;;;;13.97;9.57;;;2.80;99.90;;;;;;4995199;28;20214;-84
2021/01/16 07:52:39;;;;;;;15.03;10.80;;;2.80;99.90;;;;;;4999268;28;20197;-87
2021/01/16 07:55:07;;;;;;;14.63;9.83;;;2.70;99.90;;;;;;5019866;28;20174;-89
2021/01/16 07:57:33;;;;;;;13.43;9.93;;;2.80;99.90;;;;;;5016030;28;20175;-87
2021/01/16 08:00:06;;;;;;;14.77;9.33;;;2.80;99.90;;;;;;5016359;28;20180;-86
2021/01/16 08:02:38;;;;;;;15.27;9.90;;;2.90;99.90;;;;;;5019875;28;20166;-85
2021/01/16 08:05:05;;;;;;;16.90;10.13;;;2.90;99.90;;;;;;5030678;28;20174;-87
2021/01/16 08:07:55;;;;;;;15.30;10.33;;;2.90;99.90;;;;;;5015387;28;20170;-84
2021/01/16 08:10:24;;;;;;;15.17;10.47;;;2.90;99.90;;;;;;5013465;28;20209;-85
2021/01/16 08:12:55;;;;;;;15.37;9.47;;;2.90;99.90;;;;;;5014129;28;20179;-88
2021/01/16 08:15:29;;;;;;;12.83;9.57;;;2.90;99.90;;;;;;5030973;28;20583;-89
2021/01/16 08:17:58;;;;;;;12.23;9.20;;;2.90;99.90;;;;;;5031105;28;20242;-88
2021/01/16 08:20:29;;;;;;;12.30;8.93;;;2.90;99.90;;;;;;5030571;28;20189;-83
2021/01/16 08:22:56;;;;;;;11.23;8.20;;;2.80;99.90;;;;;;5030672;28;20194;-89
2021/01/16 08:25:28;;;;;;;13.07;7.87;;;2.80;99.90;;;;;;5014078;28;20205;-86
2021/01/16 08:27:56;;;;;;;12.27;7.60;;;2.90;99.90;;;;;;5013896;28;20692;-89
2021/01/16 08:30:24;;;;;;;10.53;7.60;;;3.00;99.90;;;;;;5014369;28;20210;-85
2021/01/16 08:32:56;;;;;;;9.67;6.90;;;3.00;99.90;;;;;;5014122;28;20225;-85
2021/01/16 08:35:27;;;;;;;12.33;6.90;;;3.00;99.90;;;;;;5013587;28;20182;-86
2021/01/16 08:37:53;;;;;;;8.63;6.67;;;3.10;99.90;;;;;;5013658;28;20201;-88
2021/01/16 08:40:33;;;;;;;10.37;6.77;;;3.10;99.90;;;;;;5013364;28;20205;-87
2021/01/16 08:42:59;;;;;;;8.33;5.83;;;3.20;99.90;;;;;;5013548;28;20265;-88
2021/01/16 08:45:26;;;;;;;8.47;6.27;;;3.20;99.90;;;;;;5015588;28;20663;-87
2021/01/16 08:58:30;;;;;;;11.37;7.17;;;3.20;99.90;;;;;;5151248;27;20599;-85
2021/01/16 09:00:56;;;;;;;11.90;7.03;;;3.40;99.90;;;;;;5168794;27;20174;-87
2021/01/16 09:03:25;;;;;;;9.23;7.20;;;3.40;99.90;;;;;;5133312;27;20222;-85
2021/01/16 09:06:01;;;;;;;10.50;6.57;;;3.20;99.90;;;;;;5151447;27;20161;-85
2021/01/16 09:08:28;;;;;;;10.10;7.23;;;3.20;99.90;;;;;;5133256;27;20173;-84
2021/01/16 09:11:11;;;;;;;11.27;7.57;;;3.10;99.90;;;;;;5132754;27;20173;-86
2021/01/16 09:13:42;;;;;;;12.90;8.50;;;3.10;99.90;;;;;;5133024;27;20174;-86
2021/01/16 09:16:32;;;;;;;12.27;8.70;;;3.00;99.90;;;;;;5133930;27;20328;-85
2021/01/16 09:18:58;;;;;;;10.63;7.97;;;2.90;99.90;;;;;;5160828;27;20162;-85
2021/01/16 09:21:25;;;;;;;11.23;8.00;;;2.80;99.90;;;;;;5139950;27;20200;-87
2021/01/16 09:23:51;;;;;;;11.60;7.77;;;2.80;99.90;;;;;;5118859;28;20662;-85
2021/01/16 09:26:18;;;;;;;14.50;8.67;;;2.80;99.90;;;;;;5112288;28;20209;-85
2021/01/16 09:28:54;;;;;;;11.93;8.40;;;2.80;99.90;;;;;;5112953;28;20209;-84
2021/01/16 09:31:22;;;;;;;14.03;7.83;;;2.70;99.90;;;;;;5110351;28;20178;-85
2021/01/16 09:34:00;;;;;;;12.07;8.60;;;2.60;99.90;;;;;;5092974;28;20175;-83
2021/01/16 09:36:45;;;;;;;15.20;9.10;;;2.60;99.90;;;;;;5111231;28;20170;-84
2021/01/16 09:39:30;;;;;;;12.20;8.23;;;2.60;99.90;;;;;;5129344;28;20645;-88
2021/01/16 09:42:02;;;;;;;14.97;10.50;;;2.50;99.90;;;;;;5129659;27;20176;-89
2021/01/16 09:44:43;;;;;;;15.27;9.40;;;2.60;99.90;;;;;;5124358;28;20623;-85
2021/01/16 09:47:27;;;;;;;12.83;10.63;;;2.60;99.90;;;;;;5091954;28;20207;-90
2021/01/16 09:50:06;;;;;;;15.90;10.20;;;2.60;99.90;;;;;;5125931;28;20167;-86
2021/01/16 09:52:32;;;;;;;15.87;10.57;;;2.60;99.90;;;;;;5125311;28;20631;-90
2021/01/16 09:55:02;;;;;;;15.23;11.20;;;2.60;99.90;;;;;;5123929;27;20174;-88
2021/01/16 09:57:35;;;;;;;17.30;11.70;;;2.50;99.90;;;;;;5126517;28;20209;-88
2021/01/16 10:00:08;;;;;;;16.73;13.90;;;2.50;99.90;;;;;;5115410;28;20236;-83
2021/01/16 10:02:34;;;;;;;14.27;10.80;;;2.60;99.90;;;;;;5085316;28;20588;-88
2021/01/16 10:05:00;;;;;;;18.93;11.13;;;2.60;99.90;;;;;;5093455;28;20159;-90
2021/01/16 10:07:38;;;;;;;15.27;10.77;;;2.60;99.90;;;;;;5107236;28;20241;-87
2021/01/16 10:10:17;;;;;;;16.50;11.50;;;2.60;99.90;;;;;;5102382;28;20169;-88
2021/01/16 10:12:43;;;;;;;15.53;11.40;;;2.70;99.90;;;;;;5098355;28;20178;-93
2021/01/16 10:15:32;;;;;;;17.63;11.43;;;2.70;99.90;;;;;;5095278;28;20173;-87
2021/01/16 10:17:58;;;;;;;18.50;12.17;;;2.60;99.90;;;;;;5086976;28;20639;-85
2021/01/16 10:20:34;;;;;;;16.70;11.33;;;2.60;99.90;;;;;;5078695;28;20175;-85
2021/01/16 10:23:06;;;;;;;17.80;11.60;;;2.70;99.90;;;;;;5114197;28;20194;-88
2021/01/16 10:25:40;;;;;;;20.03;11.73;;;2.60;99.90;;;;;;5115304;28;20267;-85
2021/01/16 10:28:09;;;;;;;18.43;11.23;;;2.60;99.90;;;;;;5113510;28;20186;-88
2021/01/16 10:30:47;;;;;;;16.57;11.23;;;2.50;99.90;;;;;;5114337;28;20189;-87
2021/01/16 10:33:19;;;;;;;19.40;12.57;;;2.50;99.90;;;;;;5097946;28;20177;-88
2021/01/16 10:35:50;;;;;;;17.87;12.27;;;2.40;99.90;;;;;;5098065;28;20608;-84
2021/01/16 10:38:39;;;;;;;17.73;12.37;;;2.40;99.90;;;;;;5097349;28;20581;-87
2021/01/16 10:41:11;;;;;;;17.13;11.70;;;2.40;99.90;;;;;;5097164;28;20167;-85
2021/01/16 10:43:37;;;;;;;17.90;13.40;;;2.40;99.90;;;;;;5097612;28;20181;-88
2021/01/16 10:46:12;;;;;;;17.50;13.03;;;2.40;99.90;;;;;;5097384;28;20195;-84
2021/01/16 10:48:39;;;;;;;15.27;11.67;;;2.40;99.90;;;;;;5097153;28;20255;-87
2021/01/16 10:51:10;;;;;;;15.73;10.70;;;2.50;99.90;;;;;;5094309;28;20259;-90
2021/01/16 10:53:38;;;;;;;17.10;11.27;;;2.50;99.90;;;;;;5094101;28;20178;-87
2021/01/16 10:56:15;;;;;;;14.77;9.90;;;2.50;99.90;;;;;;5115502;28;20217;-91
2021/01/16 10:58:43;;;;;;;16.60;10.60;;;2.70;99.90;;;;;;5115664;28;20174;-87
2021/01/16 11:01:10;;;;;;;18.73;10.93;;;2.50;99.90;;;;;;5115139;28;20178;-85
2021/01/16 11:03:36;;;;;;;16.57;10.40;;;2.40;99.90;;;;;;5105179;28;20263;-86
2021/01/16 11:06:10;;;;;;;16.13;11.10;;;2.50;99.90;;;;;;5095781;28;20223;-86
2021/01/16 11:08:39;;;;;;;15.10;10.47;;;2.60;99.90;;;;;;5097025;28;20257;-88
2021/01/16 11:11:23;;;;;;;17.33;10.23;;;2.60;99.90;;;;;;5115118;28;20208;-89
2021/01/16 11:13:51;;;;;;;17.87;10.60;;;2.70;99.90;;;;;;5114541;28;20208;-83
2021/01/16 11:16:20;;;;;;;15.27;10.53;;;2.80;99.90;;;;;;5093914;28;20181;-87
2021/01/16 11:18:47;;;;;;;14.90;10.60;;;2.80;99.90;;;;;;5096164;28;20538;-82
2021/01/16 11:21:56;;;;;;;14.10;10.63;;;2.70;99.90;;;;;;5096831;28;20255;-86
2021/01/16 11:24:42;;;;;;;18.30;11.17;;;2.60;99.90;;;;;;5095489;28;20186;-87
2021/01/16 11:27:16;;;;;;;14.87;9.60;;;2.70;99.90;;;;;;5111939;28;20290;-84
2021/01/16 11:29:43;;;;;;;16.90;11.00;;;2.70;99.90;;;;;;5112321;28;20171;-86
2021/01/16 11:32:15;;;;;;;18.67;11.13;;;2.70;99.90;;;;;;5110873;28;20872;-85
2021/01/16 11:35:11;;;;;;;17.90;12.70;;;2.70;99.90;;;;;;5113170;28;20623;-87
2021/01/16 11:37:44;;;;;;;22.40;12.03;;;2.70;99.90;;;;;;5059256;28;20184;-91
2021/01/16 11:40:33;;;;;;;18.33;10.83;;;2.70;99.90;;;;;;5075294;28;20186;-83
2021/01/16 11:43:05;;;;;;;16.03;11.07;;;2.70;99.90;;;;;;5074750;28;20195;-83
2021/01/16 11:45:30;;;;;;;17.77;11.90;;;2.50;99.90;;;;;;5074316;28;20206;-82
2021/01/16 11:47:59;;;;;;;15.77;11.33;;;2.50;99.90;;;;;;5074642;28;20679;-85
2021/01/16 11:50:27;;;;;;;18.23;12.30;;;2.50;99.90;;;;;;5089163;28;20194;-88
2021/01/16 11:52:52;;;;;;;17.53;11.63;;;2.60;99.90;;;;;;5110577;28;20174;-85
2021/01/16 11:55:20;;;;;;;17.37;12.27;;;2.70;99.90;;;;;;5112240;28;20167;-86
2021/01/16 11:57:46;;;;;;;19.83;12.80;;;2.70;99.90;;;;;;5111795;28;20311;-87
2021/01/16 12:00:14;;;;;;;18.90;12.27;;;2.70;99.90;;;;;;5112691;28;20171;-83
2021/01/16 12:02:45;;;;;;;20.60;13.80;;;2.70;99.90;;;;;;5089875;28;20259;-86
2021/01/16 12:05:16;;;;;;;18.80;13.03;;;2.70;99.90;;;;;;5112957;28;20167;-84
2021/01/16 12:08:08;;;;;;;17.93;12.73;;;2.70;99.90;;;;;;5095400;28;20735;-90
2021/01/16 12:10:34;;;;;;;19.27;12.53;;;2.70;99.90;;;;;;5091794;28;20282;-88
2021/01/16 12:13:00;;;;;;;22.00;13.77;;;2.60;99.90;;;;;;5112928;28;20254;-84
2021/01/16 12:15:28;;;;;;;21.73;14.17;;;2.50;99.90;;;;;;5094613;28;20171;-83
2021/01/16 12:17:54;;;;;;;21.33;14.93;;;2.50;99.90;;;;;;5108912;28;20183;-83
2021/01/16 12:20:28;;;;;;;21.13;14.30;;;2.60;99.90;;;;;;5092869;28;20215;-83
2021/01/16 12:22:58;;;;;;;22.37;13.67;;;2.50;99.90;;;;;;5097214;28;20195;-82
2021/01/16 12:25:32;;;;;;;21.27;13.63;;;2.50;99.90;;;;;;5077083;28;20241;-81
2021/01/16 12:28:00;;;;;;;22.17;14.93;;;2.50;99.90;;;;;;5093719;28;20229;-82
2021/01/16 12:30:42;;;;;;;22.43;14.70;;;2.50;99.90;;;;;;5112409;28;20206;-85
2021/01/16 12:33:07;;;;;;;22.13;15.00;;;2.50;99.90;;;;;;5110722;28;20182;-85
2021/01/16 12:35:33;;;;;;;23.83;14.83;;;2.50;99.90;;;;;;5110903;28;20159;-82
2021/01/16 12:37:59;;;;;;;21.90;15.67;;;2.50;99.90;;;;;;5092843;28;20166;-85
2021/01/16 12:40:27;;;;;;;24.13;15.80;;;2.50;99.90;;;;;;5111945;28;20174;-85
2021/01/16 12:42:53;;;;;;;24.17;16.23;;;2.60;99.90;;;;;;5094054;28;20167;-83
2021/01/16 12:45:21;;;;;;;27.60;16.67;;;2.50;99.90;;;;;;5093858;28;20189;-83
2021/01/16 12:47:51;;;;;;;23.83;15.53;;;2.80;99.90;;;;;;5093812;28;20199;-88
2021/01/16 12:50:20;;;;;;;22.20;15.67;;;2.60;99.90;;;;;;5094535;28;20194;-81
2021/01/16 12:52:51;;;;;;;23.83;15.87;;;2.50;99.90;;;;;;5112161;28;20182;-82
2021/01/16 12:55:18;;;;;;;25.00;15.23;;;2.40;99.90;;;;;;5112278;28;20159;-83
2021/01/16 12:57:46;;;;;;;24.00;16.20;;;2.40;99.90;;;;;;5112060;28;20218;-85
2021/01/16 13:00:18;;;;;;;25.00;16.47;;;2.40;99.90;;;;;;5111816;28;20179;-84
2021/01/16 13:02:45;;;;;;;26.77;18.13;;;2.30;99.90;;;;;;5090866;28;20618;-85